sensor_id;sensor_type;location;lat;lon;timestamp;temperature;humidity
8214;DHT22;4148;47.974;7.824;2022-10-16T00:00:57;15.30;99.90
8214;DHT22;4148;47.974;7.824;2022-10-16T00:03:25;15.20;99.90
8214;DHT22;4148;47.974;7.824;2022-10-16T00:05:59;15.20;99.90
8214;DHT22;4148;47.974;7.824;2022-10-16T00:08:27;15.20;99.90
8214;DHT22;4148;47.974;7.824;2022-10-16T00:11:01;15.10;99.90
8214;DHT22;4148;47.974;7.824;2022-10-16T00:13:30;15.10;99.90
8214;DHT22;4148;47.974;7.824;2022-10-16T00:15:59;15.10;99.90
8214;DHT22;4148;47.974;7.824;2022-10-16T00:18:28;15.10;99.90
8214;DHT22;4148;47.974;7.824;2022-10-16T00:21:01;15.10;99.90
8214;DHT22;4148;47.974;7.824;2022-10-16T00:23:29;15.10;99.90
8214;DHT22;4148;47.974;7.824;2022-10-16T00:25:57;15.10;99.90
8214;DHT22;4148;47.974;7.824;2022-10-16T00:28:27;15.20;99.90
8214;DHT22;4148;47.974;7.824;2022-10-16T00:30:55;15.20;99.90
8214;DHT22;4148;47.974;7.824;2022-10-16T00:33:24;15.20;99.90
8214;DHT22;4148;47.974;7.824;2022-10-16T00:35:52;15.20;99.90
8214;DHT22;4148;47.974;7.824;2022-10-16T00:38:20;15.20;99.90
8214;DHT22;4148;47.974;7.824;2022-10-16T00:40:47;15.20;99.90
8214;DHT22;4148;47.974;7.824;2022-10-16T00:43:36;15.20;99.90
8214;DHT22;4148;47.974;7.824;2022-10-16T00:46:08;15.20;99.90
8214;DHT22;4148;47.974;7.824;2022-10-16T00:48:38;15.20;99.90
8214;DHT22;4148;47.974;7.824;2022-10-16T00:51:07;15.20;99.90
8214;DHT22;4148;47.974;7.824;2022-10-16T00:53:35;15.20;99.90
8214;DHT22;4148;47.974;7.824;2022-10-16T00:56:04;15.30;99.90
8214;DHT22;4148;47.974;7.824;2022-10-16T00:58:32;15.30;99.90
8214;DHT22;4148;47.974;7.824;2022-10-16T01:01:01;15.30;99.90
8214;DHT22;4148;47.974;7.824;2022-10-16T01:03:32;15.30;99.90
8214;DHT22;4148;47.974;7.824;2022-10-16T01:06:09;15.20;99.90
8214;DHT22;4148;47.974;7.824;2022-10-16T01:08:51;15.20;99.90
8214;DHT22;4148;47.974;7.824;2022-10-16T01:11:25;15.20;99.90
8214;DHT22;4148;47.974;7.824;2022-10-16T01:13:58;15.10;99.90
8214;DHT22;4148;47.974;7.824;2022-10-16T01:16:34;15.10;99.90
8214;DHT22;4148;47.974;7.824;2022-10-16T01:19:09;15.00;99.90
8214;DHT22;4148;47.974;7.824;2022-10-16T01:21:40;15.00;99.90
8214;DHT22;4148;47.974;7.824;2022-10-16T01:24:17;15.10;99.90
8214;DHT22;4148;47.974;7.824;2022-10-16T01:27:13;15.00;99.90
8214;DHT22;4148;47.974;7.824;2022-10-16T01:29:49;15.00;99.90
8214;DHT22;4148;47.974;7.824;2022-10-16T01:32:23;15.00;99.90
8214;DHT22;4148;47.974;7.824;2022-10-16T01:34:58;14.90;99.90
8214;DHT22;4148;47.974;7.824;2022-10-16T01:37:36;14.80;99.90
8214;DHT22;4148;47.974;7.824;2022-10-16T01:40:09;14.80;99.90
8214;DHT22;4148;47.974;7.824;2022-10-16T01:42:41;14.80;99.90
8214;DHT22;4148;47.974;7.824;2022-10-16T01:45:13;14.80;99.90
8214;DHT22;4148;47.974;7.824;2022-10-16T01:47:45;14.80;99.90
8214;DHT22;4148;47.974;7.824;2022-10-16T01:50:15;14.80;99.90
8214;DHT22;4148;47.974;7.824;2022-10-16T01:52:46;14.90;99.90
8214;DHT22;4148;47.974;7.824;2022-10-16T01:55:17;14.80;99.90
8214;DHT22;4148;47.974;7.824;2022-10-16T01:57:50;14.80;99.90
8214;DHT22;4148;47.974;7.824;2022-10-16T02:00:20;14.80;99.90
8214;DHT22;4148;47.974;7.824;2022-10-16T02:02:52;14.70;99.90
8214;DHT22;4148;47.974;7.824;2022-10-16T02:05:25;14.80;99.90
8214;DHT22;4148;47.974;7.824;2022-10-16T02:07:55;14.70;99.90
8214;DHT22;4148;47.974;7.824;2022-10-16T02:10:26;14.60;99.90
8214;DHT22;4148;47.974;7.824;2022-10-16T02:13:02;14.70;99.90
8214;DHT22;4148;47.974;7.824;2022-10-16T02:15:31;14.70;99.90
8214;DHT22;4148;47.974;7.824;2022-10-16T02:17:59;14.70;99.90
8214;DHT22;4148;47.974;7.824;2022-10-16T02:20:28;14.70;99.90
8214;DHT22;4148;47.974;7.824;2022-10-16T02:23:01;14.80;99.90
8214;DHT22;4148;47.974;7.824;2022-10-16T02:25:32;14.70;99.90
8214;DHT22;4148;47.974;7.824;2022-10-16T02:28:06;14.80;99.90
8214;DHT22;4148;47.974;7.824;2022-10-16T02:30:38;14.90;99.90
8214;DHT22;4148;47.974;7.824;2022-10-16T02:33:10;14.90;99.90
8214;DHT22;4148;47.974;7.824;2022-10-16T02:35:41;14.90;99.90
8214;DHT22;4148;47.974;7.824;2022-10-16T02:38:09;14.90;99.90
8214;DHT22;4148;47.974;7.824;2022-10-16T02:40:38;14.90;99.90
8214;DHT22;4148;47.974;7.824;2022-10-16T02:43:07;15.00;99.90
8214;DHT22;4148;47.974;7.824;2022-10-16T02:45:36;14.90;99.90
8214;DHT22;4148;47.974;7.824;2022-10-16T02:48:04;15.00;99.90
8214;DHT22;4148;47.974;7.824;2022-10-16T02:50:33;14.90;99.90
8214;DHT22;4148;47.974;7.824;2022-10-16T02:53:01;15.00;99.90
8214;DHT22;4148;47.974;7.824;2022-10-16T02:55:29;15.00;99.90
8214;DHT22;4148;47.974;7.824;2022-10-16T02:57:57;15.20;99.90
8214;DHT22;4148;47.974;7.824;2022-10-16T03:00:26;15.20;99.90
8214;DHT22;4148;47.974;7.824;2022-10-16T03:02:55;15.20;99.90
8214;DHT22;4148;47.974;7.824;2022-10-16T03:05:23;15.20;99.90
8214;DHT22;4148;47.974;7.824;2022-10-16T03:07:51;15.20;99.90
8214;DHT22;4148;47.974;7.824;2022-10-16T03:10:19;15.20;99.90
8214;DHT22;4148;47.974;7.824;2022-10-16T03:12:47;15.10;99.90
8214;DHT22;4148;47.974;7.824;2022-10-16T03:15:15;15.00;99.90
8214;DHT22;4148;47.974;7.824;2022-10-16T03:17:44;14.90;99.90
8214;DHT22;4148;47.974;7.824;2022-10-16T03:20:12;14.90;99.90
8214;DHT22;4148;47.974;7.824;2022-10-16T03:22:40;14.90;99.90
8214;DHT22;4148;47.974;7.824;2022-10-16T03:25:08;15.00;99.90
8214;DHT22;4148;47.974;7.824;2022-10-16T03:27:36;14.90;99.90
8214;DHT22;4148;47.974;7.824;2022-10-16T03:30:04;14.90;99.90
8214;DHT22;4148;47.974;7.824;2022-10-16T03:32:32;14.80;99.90
8214;DHT22;4148;47.974;7.824;2022-10-16T03:35:02;14.80;99.90
8214;DHT22;4148;47.974;7.824;2022-10-16T03:37:30;14.80;99.90
8214;DHT22;4148;47.974;7.824;2022-10-16T03:39:58;14.80;99.90
8214;DHT22;4148;47.974;7.824;2022-10-16T03:42:26;15.00;99.90
8214;DHT22;4148;47.974;7.824;2022-10-16T03:44:54;15.00;99.90
8214;DHT22;4148;47.974;7.824;2022-10-16T03:47:22;15.00;99.90
8214;DHT22;4148;47.974;7.824;2022-10-16T03:49:50;15.00;99.90
8214;DHT22;4148;47.974;7.824;2022-10-16T03:52:20;15.00;99.90
8214;DHT22;4148;47.974;7.824;2022-10-16T03:54:48;15.00;99.90
8214;DHT22;4148;47.974;7.824;2022-10-16T03:57:16;15.00;99.90
8214;DHT22;4148;47.974;7.824;2022-10-16T03:59:44;15.00;99.90
8214;DHT22;4148;47.974;7.824;2022-10-16T04:02:12;14.90;99.90
8214;DHT22;4148;47.974;7.824;2022-10-16T04:04:40;14.90;99.90
8214;DHT22;4148;47.974;7.824;2022-10-16T04:07:08;14.90;99.90
8214;DHT22;4148;47.974;7.824;2022-10-16T04:09:37;14.90;99.90
8214;DHT22;4148;47.974;7.824;2022-10-16T04:12:05;14.90;99.90
8214;DHT22;4148;47.974;7.824;2022-10-16T04:14:32;14.90;99.90
8214;DHT22;4148;47.974;7.824;2022-10-16T04:17:00;14.80;99.90
8214;DHT22;4148;47.974;7.824;2022-10-16T04:19:28;14.80;99.90
8214;DHT22;4148;47.974;7.824;2022-10-16T04:21:56;14.80;99.90
8214;DHT22;4148;47.974;7.824;2022-10-16T04:24:24;14.90;99.90
8214;DHT22;4148;47.974;7.824;2022-10-16T04:26:53;14.90;99.90
8214;DHT22;4148;47.974;7.824;2022-10-16T04:29:21;14.90;99.90
8214;DHT22;4148;47.974;7.824;2022-10-16T04:31:49;15.00;99.90
8214;DHT22;4148;47.974;7.824;2022-10-16T04:34:17;15.00;99.90
8214;DHT22;4148;47.974;7.824;2022-10-16T04:36:47;15.00;99.90
8214;DHT22;4148;47.974;7.824;2022-10-16T04:39:16;15.00;99.90
8214;DHT22;4148;47.974;7.824;2022-10-16T04:41:43;15.00;99.90
8214;DHT22;4148;47.974;7.824;2022-10-16T04:44:13;15.10;99.90
8214;DHT22;4148;47.974;7.824;2022-10-16T04:46:41;15.10;99.90
8214;DHT22;4148;47.974;7.824;2022-10-16T04:49:08;15.10;99.90
8214;DHT22;4148;47.974;7.824;2022-10-16T04:51:36;15.10;99.90
8214;DHT22;4148;47.974;7.824;2022-10-16T04:54:04;15.00;99.90
8214;DHT22;4148;47.974;7.824;2022-10-16T04:56:32;15.00;99.90
8214;DHT22;4148;47.974;7.824;2022-10-16T04:59:06;15.00;99.90
8214;DHT22;4148;47.974;7.824;2022-10-16T05:01:35;15.00;99.90
8214;DHT22;4148;47.974;7.824;2022-10-16T05:04:04;15.00;99.90
8214;DHT22;4148;47.974;7.824;2022-10-16T05:06:32;15.00;99.90
8214;DHT22;4148;47.974;7.824;2022-10-16T05:08:59;15.10;99.90
8214;DHT22;4148;47.974;7.824;2022-10-16T05:11:27;15.10;99.90
8214;DHT22;4148;47.974;7.824;2022-10-16T05:13:55;15.00;99.90
8214;DHT22;4148;47.974;7.824;2022-10-16T05:16:23;15.00;99.90
8214;DHT22;4148;47.974;7.824;2022-10-16T05:18:53;15.00;99.90
8214;DHT22;4148;47.974;7.824;2022-10-16T05:21:35;15.00;99.90
8214;DHT22;4148;47.974;7.824;2022-10-16T05:24:04;14.90;99.90
8214;DHT22;4148;47.974;7.824;2022-10-16T05:26:31;14.90;99.90
8214;DHT22;4148;47.974;7.824;2022-10-16T05:28:59;15.00;99.90
8214;DHT22;4148;47.974;7.824;2022-10-16T05:31:27;14.90;99.90
8214;DHT22;4148;47.974;7.824;2022-10-16T05:33:59;14.90;99.90
8214;DHT22;4148;47.974;7.824;2022-10-16T05:36:27;14.90;99.90
8214;DHT22;4148;47.974;7.824;2022-10-16T05:38:55;14.90;99.90
8214;DHT22;4148;47.974;7.824;2022-10-16T05:41:23;14.90;99.90
8214;DHT22;4148;47.974;7.824;2022-10-16T05:43:52;14.90;99.90
8214;DHT22;4148;47.974;7.824;2022-10-16T05:46:20;14.80;99.90
8214;DHT22;4148;47.974;7.824;2022-10-16T05:48:51;14.80;99.90
8214;DHT22;4148;47.974;7.824;2022-10-16T05:51:20;14.80;99.90
8214;DHT22;4148;47.974;7.824;2022-10-16T05:53:48;15.00;99.90
8214;DHT22;4148;47.974;7.824;2022-10-16T05:56:15;15.10;99.90
8214;DHT22;4148;47.974;7.824;2022-10-16T05:58:44;15.30;99.90
8214;DHT22;4148;47.974;7.824;2022-10-16T06:01:14;15.30;99.90
8214;DHT22;4148;47.974;7.824;2022-10-16T06:03:43;15.30;99.90
8214;DHT22;4148;47.974;7.824;2022-10-16T06:06:12;15.20;99.90
8214;DHT22;4148;47.974;7.824;2022-10-16T06:08:43;15.20;99.90
8214;DHT22;4148;47.974;7.824;2022-10-16T06:11:13;15.20;99.90
8214;DHT22;4148;47.974;7.824;2022-10-16T06:13:42;15.10;99.90
8214;DHT22;4148;47.974;7.824;2022-10-16T06:16:12;15.10;99.90
8214;DHT22;4148;47.974;7.824;2022-10-16T06:18:40;15.00;99.90
8214;DHT22;4148;47.974;7.824;2022-10-16T06:21:09;15.00;99.90
8214;DHT22;4148;47.974;7.824;2022-10-16T06:23:38;15.10;99.90
8214;DHT22;4148;47.974;7.824;2022-10-16T06:26:08;15.10;99.90
8214;DHT22;4148;47.974;7.824;2022-10-16T06:28:37;15.10;99.90
8214;DHT22;4148;47.974;7.824;2022-10-16T06:31:06;15.10;99.90
8214;DHT22;4148;47.974;7.824;2022-10-16T06:33:35;15.10;99.90
8214;DHT22;4148;47.974;7.824;2022-10-16T06:36:04;15.20;99.90
8214;DHT22;4148;47.974;7.824;2022-10-16T06:38:32;15.10;99.90
8214;DHT22;4148;47.974;7.824;2022-10-16T06:41:00;15.10;99.90
8214;DHT22;4148;47.974;7.824;2022-10-16T06:43:30;15.20;99.90
8214;DHT22;4148;47.974;7.824;2022-10-16T06:46:00;15.20;99.90
8214;DHT22;4148;47.974;7.824;2022-10-16T06:48:28;15.20;99.90
8214;DHT22;4148;47.974;7.824;2022-10-16T06:50:57;15.20;99.90
8214;DHT22;4148;47.974;7.824;2022-10-16T06:53:27;15.20;99.90
8214;DHT22;4148;47.974;7.824;2022-10-16T06:56:07;15.30;99.90
8214;DHT22;4148;47.974;7.824;2022-10-16T06:58:36;15.30;99.90
8214;DHT22;4148;47.974;7.824;2022-10-16T07:01:05;15.30;99.90
8214;DHT22;4148;47.974;7.824;2022-10-16T07:03:35;15.30;99.90
8214;DHT22;4148;47.974;7.824;2022-10-16T07:06:04;15.30;99.90
8214;DHT22;4148;47.974;7.824;2022-10-16T07:08:32;15.30;99.90
8214;DHT22;4148;47.974;7.824;2022-10-16T07:11:00;15.30;99.90
8214;DHT22;4148;47.974;7.824;2022-10-16T07:13:28;15.30;99.90
8214;DHT22;4148;47.974;7.824;2022-10-16T07:15:58;15.30;99.90
8214;DHT22;4148;47.974;7.824;2022-10-16T07:18:25;15.40;99.90
8214;DHT22;4148;47.974;7.824;2022-10-16T07:21:03;15.40;99.90
8214;DHT22;4148;47.974;7.824;2022-10-16T07:23:31;15.40;99.90
8214;DHT22;4148;47.974;7.824;2022-10-16T07:25:59;15.40;99.90
8214;DHT22;4148;47.974;7.824;2022-10-16T07:28:27;15.40;99.90
8214;DHT22;4148;47.974;7.824;2022-10-16T07:30:55;15.50;99.90
8214;DHT22;4148;47.974;7.824;2022-10-16T07:33:24;15.50;99.90
8214;DHT22;4148;47.974;7.824;2022-10-16T07:35:53;15.70;99.90
8214;DHT22;4148;47.974;7.824;2022-10-16T07:38:22;15.70;99.90
8214;DHT22;4148;47.974;7.824;2022-10-16T07:40:56;15.70;99.90
8214;DHT22;4148;47.974;7.824;2022-10-16T07:43:24;15.80;99.90
8214;DHT22;4148;47.974;7.824;2022-10-16T07:45:53;15.80;99.90
8214;DHT22;4148;47.974;7.824;2022-10-16T07:48:24;15.90;99.90
8214;DHT22;4148;47.974;7.824;2022-10-16T07:50:57;16.10;99.90
8214;DHT22;4148;47.974;7.824;2022-10-16T07:53:25;16.40;99.90
8214;DHT22;4148;47.974;7.824;2022-10-16T07:55:57;16.50;99.90
8214;DHT22;4148;47.974;7.824;2022-10-16T07:58:26;16.60;99.90
8214;DHT22;4148;47.974;7.824;2022-10-16T08:00:54;16.60;99.90
8214;DHT22;4148;47.974;7.824;2022-10-16T08:03:23;16.70;99.90
8214;DHT22;4148;47.974;7.824;2022-10-16T08:05:52;16.70;99.90
8214;DHT22;4148;47.974;7.824;2022-10-16T08:08:20;16.90;99.90
8214;DHT22;4148;47.974;7.824;2022-10-16T08:10:47;17.00;99.90
8214;DHT22;4148;47.974;7.824;2022-10-16T08:13:16;17.10;99.90
8214;DHT22;4148;47.974;7.824;2022-10-16T08:15:44;17.20;99.90
8214;DHT22;4148;47.974;7.824;2022-10-16T08:18:14;17.30;99.90
8214;DHT22;4148;47.974;7.824;2022-10-16T08:20:43;17.30;99.90
8214;DHT22;4148;47.974;7.824;2022-10-16T08:23:12;17.40;99.90
8214;DHT22;4148;47.974;7.824;2022-10-16T08:25:40;17.40;99.90
8214;DHT22;4148;47.974;7.824;2022-10-16T08:28:10;17.40;99.90
8214;DHT22;4148;47.974;7.824;2022-10-16T08:30:38;17.50;99.90
8214;DHT22;4148;47.974;7.824;2022-10-16T08:33:06;17.60;99.90
8214;DHT22;4148;47.974;7.824;2022-10-16T08:35:34;17.80;99.90
8214;DHT22;4148;47.974;7.824;2022-10-16T08:38:04;17.90;99.90
8214;DHT22;4148;47.974;7.824;2022-10-16T08:40:34;18.10;99.90
8214;DHT22;4148;47.974;7.824;2022-10-16T08:43:25;18.20;99.90
8214;DHT22;4148;47.974;7.824;2022-10-16T08:46:12;18.30;99.90
8214;DHT22;4148;47.974;7.824;2022-10-16T08:48:45;18.20;99.90
8214;DHT22;4148;47.974;7.824;2022-10-16T08:51:19;18.20;99.90
8214;DHT22;4148;47.974;7.824;2022-10-16T08:53:53;18.20;99.90
8214;DHT22;4148;47.974;7.824;2022-10-16T08:56:22;18.20;99.90
8214;DHT22;4148;47.974;7.824;2022-10-16T08:58:50;18.10;99.90
8214;DHT22;4148;47.974;7.824;2022-10-16T09:01:32;18.10;99.90
8214;DHT22;4148;47.974;7.824;2022-10-16T09:04:32;18.00;99.90
8214;DHT22;4148;47.974;7.824;2022-10-16T09:07:13;18.00;99.90
8214;DHT22;4148;47.974;7.824;2022-10-16T09:09:56;18.10;99.90
8214;DHT22;4148;47.974;7.824;2022-10-16T09:12:33;18.40;99.90
8214;DHT22;4148;47.974;7.824;2022-10-16T09:15:14;18.60;99.90
8214;DHT22;4148;47.974;7.824;2022-10-16T09:17:52;18.70;99.90
8214;DHT22;4148;47.974;7.824;2022-10-16T09:20:33;18.80;99.90
8214;DHT22;4148;47.974;7.824;2022-10-16T09:23:14;19.00;99.90
8214;DHT22;4148;47.974;7.824;2022-10-16T09:25:46;19.20;99.90
8214;DHT22;4148;47.974;7.824;2022-10-16T09:28:16;19.40;99.90
8214;DHT22;4148;47.974;7.824;2022-10-16T09:30:44;19.80;99.90
8214;DHT22;4148;47.974;7.824;2022-10-16T09:33:12;20.30;99.90
8214;DHT22;4148;47.974;7.824;2022-10-16T09:35:43;20.70;99.90
8214;DHT22;4148;47.974;7.824;2022-10-16T09:38:22;21.30;99.90
8214;DHT22;4148;47.974;7.824;2022-10-16T09:40:52;21.60;99.90
8214;DHT22;4148;47.974;7.824;2022-10-16T09:43:34;21.60;99.90
8214;DHT22;4148;47.974;7.824;2022-10-16T09:46:06;21.70;99.90
8214;DHT22;4148;47.974;7.824;2022-10-16T09:48:37;22.10;99.90
8214;DHT22;4148;47.974;7.824;2022-10-16T09:51:16;22.50;99.90
8214;DHT22;4148;47.974;7.824;2022-10-16T09:53:46;23.00;99.90
8214;DHT22;4148;47.974;7.824;2022-10-16T09:56:23;23.40;99.90
8214;DHT22;4148;47.974;7.824;2022-10-16T09:58:53;24.10;99.90
8214;DHT22;4148;47.974;7.824;2022-10-16T10:01:24;24.80;99.90
8214;DHT22;4148;47.974;7.824;2022-10-16T10:03:56;25.10;99.90
8214;DHT22;4148;47.974;7.824;2022-10-16T10:06:29;25.20;1.00
8214;DHT22;4148;47.974;7.824;2022-10-16T10:09:17;25.00;1.00
8214;DHT22;4148;47.974;7.824;2022-10-16T10:11:54;24.90;1.00
8214;DHT22;4148;47.974;7.824;2022-10-16T10:14:31;24.80;1.00
8214;DHT22;4148;47.974;7.824;2022-10-16T10:17:10;24.60;1.00
8214;DHT22;4148;47.974;7.824;2022-10-16T10:19:41;24.60;1.00
8214;DHT22;4148;47.974;7.824;2022-10-16T10:22:23;24.30;1.00
8214;DHT22;4148;47.974;7.824;2022-10-16T10:24:56;24.20;1.00
8214;DHT22;4148;47.974;7.824;2022-10-16T10:27:31;24.00;1.00
8214;DHT22;4148;47.974;7.824;2022-10-16T10:30:04;23.80;1.00
8214;DHT22;4148;47.974;7.824;2022-10-16T10:32:43;23.80;1.00
8214;DHT22;4148;47.974;7.824;2022-10-16T10:35:21;23.60;1.00
8214;DHT22;4148;47.974;7.824;2022-10-16T10:38:10;23.60;1.00
8214;DHT22;4148;47.974;7.824;2022-10-16T10:40:49;23.70;1.00
8214;DHT22;4148;47.974;7.824;2022-10-16T10:43:32;23.80;1.00
8214;DHT22;4148;47.974;7.824;2022-10-16T10:46:05;24.00;1.00
8214;DHT22;4148;47.974;7.824;2022-10-16T10:48:51;24.10;1.00
8214;DHT22;4148;47.974;7.824;2022-10-16T10:51:28;24.20;1.00
8214;DHT22;4148;47.974;7.824;2022-10-16T10:54:07;24.30;1.00
8214;DHT22;4148;47.974;7.824;2022-10-16T10:56:44;24.40;1.00
8214;DHT22;4148;47.974;7.824;2022-10-16T11:02:15;24.30;1.00
8214;DHT22;4148;47.974;7.824;2022-10-16T11:05:01;24.20;1.00
8214;DHT22;4148;47.974;7.824;2022-10-16T11:07:36;24.10;1.00
8214;DHT22;4148;47.974;7.824;2022-10-16T11:10:14;24.10;1.00
8214;DHT22;4148;47.974;7.824;2022-10-16T11:12:47;24.00;1.00
8214;DHT22;4148;47.974;7.824;2022-10-16T11:15:21;23.90;1.00
8214;DHT22;4148;47.974;7.824;2022-10-16T11:17:52;23.90;1.00
8214;DHT22;4148;47.974;7.824;2022-10-16T11:20:24;24.00;1.00
8214;DHT22;4148;47.974;7.824;2022-10-16T11:22:55;24.10;1.00
8214;DHT22;4148;47.974;7.824;2022-10-16T11:25:27;24.20;1.00
8214;DHT22;4148;47.974;7.824;2022-10-16T11:27:59;24.10;1.00
8214;DHT22;4148;47.974;7.824;2022-10-16T11:30:33;24.10;1.00
8214;DHT22;4148;47.974;7.824;2022-10-16T11:33:08;24.10;1.00
8214;DHT22;4148;47.974;7.824;2022-10-16T11:35:44;24.10;1.00
8214;DHT22;4148;47.974;7.824;2022-10-16T11:38:21;24.00;1.00
8214;DHT22;4148;47.974;7.824;2022-10-16T11:40:56;24.00;1.00
8214;DHT22;4148;47.974;7.824;2022-10-16T11:43:29;24.10;1.00
8214;DHT22;4148;47.974;7.824;2022-10-16T11:46:07;24.40;1.00
8214;DHT22;4148;47.974;7.824;2022-10-16T11:48:39;24.90;1.00
8214;DHT22;4148;47.974;7.824;2022-10-16T11:51:14;25.30;1.00
8214;DHT22;4148;47.974;7.824;2022-10-16T11:53:47;25.50;1.00
8214;DHT22;4148;47.974;7.824;2022-10-16T11:56:20;25.60;1.00
8214;DHT22;4148;47.974;7.824;2022-10-16T11:58:54;25.60;1.00
8214;DHT22;4148;47.974;7.824;2022-10-16T12:01:30;25.60;1.00
8214;DHT22;4148;47.974;7.824;2022-10-16T12:04:18;25.30;1.00
8214;DHT22;4148;47.974;7.824;2022-10-16T12:06:51;25.50;1.00
8214;DHT22;4148;47.974;7.824;2022-10-16T12:09:24;25.30;1.00
8214;DHT22;4148;47.974;7.824;2022-10-16T12:11:53;25.20;1.00
8214;DHT22;4148;47.974;7.824;2022-10-16T12:14:34;25.00;1.00
8214;DHT22;4148;47.974;7.824;2022-10-16T12:17:26;24.80;1.00
8214;DHT22;4148;47.974;7.824;2022-10-16T12:19:59;24.80;1.00
8214;DHT22;4148;47.974;7.824;2022-10-16T12:22:29;24.70;1.00
8214;DHT22;4148;47.974;7.824;2022-10-16T12:24:58;24.70;1.00
8214;DHT22;4148;47.974;7.824;2022-10-16T12:27:29;24.50;1.00
8214;DHT22;4148;47.974;7.824;2022-10-16T12:29:58;24.40;1.00
8214;DHT22;4148;47.974;7.824;2022-10-16T12:32:31;24.40;1.00
8214;DHT22;4148;47.974;7.824;2022-10-16T12:35:19;24.30;1.00
8214;DHT22;4148;47.974;7.824;2022-10-16T12:37:48;24.20;1.00
8214;DHT22;4148;47.974;7.824;2022-10-16T12:40:25;24.20;1.00
8214;DHT22;4148;47.974;7.824;2022-10-16T12:42:54;24.20;1.00
8214;DHT22;4148;47.974;7.824;2022-10-16T12:45:28;24.20;1.00
8214;DHT22;4148;47.974;7.824;2022-10-16T12:48:00;24.10;1.00
8214;DHT22;4148;47.974;7.824;2022-10-16T12:50:34;24.10;99.90
8214;DHT22;4148;47.974;7.824;2022-10-16T12:53:04;24.00;99.90
8214;DHT22;4148;47.974;7.824;2022-10-16T12:55:52;23.90;99.90
8214;DHT22;4148;47.974;7.824;2022-10-16T12:58:40;23.90;99.90
8214;DHT22;4148;47.974;7.824;2022-10-16T13:01:16;23.90;99.90
8214;DHT22;4148;47.974;7.824;2022-10-16T13:07:13;23.80;99.90
8214;DHT22;4148;47.974;7.824;2022-10-16T13:09:53;23.70;99.90
8214;DHT22;4148;47.974;7.824;2022-10-16T13:12:37;23.70;99.90
8214;DHT22;4148;47.974;7.824;2022-10-16T13:18:04;23.60;99.90
8214;DHT22;4148;47.974;7.824;2022-10-16T13:20:36;23.70;99.90
8214;DHT22;4148;47.974;7.824;2022-10-16T13:23:15;23.60;99.90
8214;DHT22;4148;47.974;7.824;2022-10-16T13:25:53;23.50;99.90
8214;DHT22;4148;47.974;7.824;2022-10-16T13:28:28;23.40;99.90
8214;DHT22;4148;47.974;7.824;2022-10-16T13:30:59;23.30;99.90
8214;DHT22;4148;47.974;7.824;2022-10-16T13:33:32;23.20;99.90
8214;DHT22;4148;47.974;7.824;2022-10-16T13:36:01;23.20;99.90
8214;DHT22;4148;47.974;7.824;2022-10-16T13:38:32;23.10;99.90
8214;DHT22;4148;47.974;7.824;2022-10-16T13:41:01;23.10;99.90
8214;DHT22;4148;47.974;7.824;2022-10-16T13:43:33;23.10;99.90
8214;DHT22;4148;47.974;7.824;2022-10-16T13:46:04;23.00;99.90
8214;DHT22;4148;47.974;7.824;2022-10-16T13:48:33;23.00;99.90
8214;DHT22;4148;47.974;7.824;2022-10-16T13:51:04;22.80;99.90
8214;DHT22;4148;47.974;7.824;2022-10-16T13:53:35;22.80;99.90
8214;DHT22;4148;47.974;7.824;2022-10-16T13:56:06;22.70;99.90
8214;DHT22;4148;47.974;7.824;2022-10-16T13:58:34;22.80;99.90
8214;DHT22;4148;47.974;7.824;2022-10-16T14:01:04;22.80;99.90
8214;DHT22;4148;47.974;7.824;2022-10-16T14:03:34;22.70;99.90
8214;DHT22;4148;47.974;7.824;2022-10-16T14:06:05;22.70;99.90
8214;DHT22;4148;47.974;7.824;2022-10-16T14:08:36;22.70;99.90
8214;DHT22;4148;47.974;7.824;2022-10-16T14:11:04;22.60;99.90
8214;DHT22;4148;47.974;7.824;2022-10-16T14:13:36;22.60;99.90
8214;DHT22;4148;47.974;7.824;2022-10-16T14:16:07;22.50;99.90
8214;DHT22;4148;47.974;7.824;2022-10-16T14:18:38;22.50;99.90
8214;DHT22;4148;47.974;7.824;2022-10-16T14:21:10;22.50;99.90
8214;DHT22;4148;47.974;7.824;2022-10-16T14:23:41;22.60;99.90
8214;DHT22;4148;47.974;7.824;2022-10-16T14:26:14;22.60;99.90
8214;DHT22;4148;47.974;7.824;2022-10-16T14:28:43;22.60;99.90
8214;DHT22;4148;47.974;7.824;2022-10-16T14:31:27;22.60;99.90
8214;DHT22;4148;47.974;7.824;2022-10-16T14:33:55;22.70;99.90
8214;DHT22;4148;47.974;7.824;2022-10-16T14:36:24;22.70;99.90
8214;DHT22;4148;47.974;7.824;2022-10-16T14:38:59;22.70;99.90
8214;DHT22;4148;47.974;7.824;2022-10-16T14:41:29;22.60;99.90
8214;DHT22;4148;47.974;7.824;2022-10-16T14:44:01;22.50;99.90
8214;DHT22;4148;47.974;7.824;2022-10-16T14:46:33;22.40;99.90
8214;DHT22;4148;47.974;7.824;2022-10-16T14:49:15;22.40;99.90
8214;DHT22;4148;47.974;7.824;2022-10-16T14:51:44;22.30;99.90
8214;DHT22;4148;47.974;7.824;2022-10-16T14:54:15;22.30;1.00
8214;DHT22;4148;47.974;7.824;2022-10-16T14:56:46;22.20;1.00
8214;DHT22;4148;47.974;7.824;2022-10-16T14:59:17;22.20;1.00
8214;DHT22;4148;47.974;7.824;2022-10-16T15:01:46;22.20;1.00
8214;DHT22;4148;47.974;7.824;2022-10-16T15:04:14;22.10;1.00
8214;DHT22;4148;47.974;7.824;2022-10-16T15:06:43;22.10;1.00
8214;DHT22;4148;47.974;7.824;2022-10-16T15:09:10;22.00;1.00
8214;DHT22;4148;47.974;7.824;2022-10-16T15:11:40;22.00;1.00
8214;DHT22;4148;47.974;7.824;2022-10-16T15:14:11;22.00;99.90
8214;DHT22;4148;47.974;7.824;2022-10-16T15:16:39;21.90;99.90
8214;DHT22;4148;47.974;7.824;2022-10-16T15:19:07;21.90;99.90
8214;DHT22;4148;47.974;7.824;2022-10-16T15:21:35;21.90;99.90
8214;DHT22;4148;47.974;7.824;2022-10-16T15:24:07;21.80;99.90
8214;DHT22;4148;47.974;7.824;2022-10-16T15:26:36;21.70;99.90
8214;DHT22;4148;47.974;7.824;2022-10-16T15:29:05;21.70;99.90
8214;DHT22;4148;47.974;7.824;2022-10-16T15:31:34;21.60;99.90
8214;DHT22;4148;47.974;7.824;2022-10-16T15:34:02;21.60;46.00
8214;DHT22;4148;47.974;7.824;2022-10-16T15:36:32;21.50;99.90
8214;DHT22;4148;47.974;7.824;2022-10-16T15:39:03;21.40;1.00
8214;DHT22;4148;47.974;7.824;2022-10-16T15:41:31;21.40;1.00
8214;DHT22;4148;47.974;7.824;2022-10-16T15:43:59;21.30;1.00
8214;DHT22;4148;47.974;7.824;2022-10-16T15:46:28;21.20;99.90
8214;DHT22;4148;47.974;7.824;2022-10-16T15:48:58;21.10;1.00
8214;DHT22;4148;47.974;7.824;2022-10-16T15:51:26;21.00;1.00
8214;DHT22;4148;47.974;7.824;2022-10-16T15:53:56;20.90;99.90
8214;DHT22;4148;47.974;7.824;2022-10-16T15:56:24;20.90;99.90
8214;DHT22;4148;47.974;7.824;2022-10-16T15:58:52;20.90;99.90
8214;DHT22;4148;47.974;7.824;2022-10-16T16:01:20;20.90;1.00
8214;DHT22;4148;47.974;7.824;2022-10-16T16:03:52;20.80;1.00
8214;DHT22;4148;47.974;7.824;2022-10-16T16:06:21;20.70;1.00
8214;DHT22;4148;47.974;7.824;2022-10-16T16:08:50;20.80;1.00
8214;DHT22;4148;47.974;7.824;2022-10-16T16:11:18;20.80;1.00
8214;DHT22;4148;47.974;7.824;2022-10-16T16:13:46;20.80;1.00
8214;DHT22;4148;47.974;7.824;2022-10-16T16:16:15;20.70;1.00
8214;DHT22;4148;47.974;7.824;2022-10-16T16:18:44;20.80;1.00
8214;DHT22;4148;47.974;7.824;2022-10-16T16:21:13;20.80;1.00
8214;DHT22;4148;47.974;7.824;2022-10-16T16:23:41;20.80;1.00
8214;DHT22;4148;47.974;7.824;2022-10-16T16:26:12;20.60;1.00
8214;DHT22;4148;47.974;7.824;2022-10-16T16:28:42;20.60;1.00
8214;DHT22;4148;47.974;7.824;2022-10-16T16:31:10;20.40;99.90
8214;DHT22;4148;47.974;7.824;2022-10-16T16:33:38;20.50;5.60
8214;DHT22;4148;47.974;7.824;2022-10-16T16:36:06;20.40;1.00
8214;DHT22;4148;47.974;7.824;2022-10-16T16:38:42;20.30;91.70
8214;DHT22;4148;47.974;7.824;2022-10-16T16:41:13;20.10;99.90